メインページ
METAR-TAF:

METAR-TAF

空港 :

リロングウェ国際空港

リロングウェ, マラウイ

緯度: 13-47S, 経度: 033-46E, 海抜: 1229m

現時点の気象観測

当レポートは21分前の05:00(UTC)に作成
南/南東の風 4kt
気温 13°C
湿度 94%
気圧 1024 hPa
視程: 5000m
高度700ftの雲はほとんどない
近辺で霧

METAR: FWKI 250500Z 16004KT 5000 VCFG FEW007 13/12 Q1024 BECMG 9999

時間: 07:21 (05:21 UTC)

予報

当レポートは14時間21分前の15:00(UTC)に作成
予報は24日の 18時(UTC)から 25日の 24時(UTC)まで有効
の風 11kt
視程10km以上
高度3500ftの雲は散在している
24日の 1800時(UTC)から
南/南東の風 7kt
視程10km以上
1,500メートル以下は雲なし、積乱雲なし
25日の 02時(UTC)から 25日の 06時(UTC)まで一時的に
視程: 6000m
25日の 07時(UTC)から 25日の 09時(UTC)まで徐々に
東/南東の風 6kt
視程10km以上
高度2500ftの雲はほとんどない
25日の 11時(UTC)から 25日の 13時(UTC)まで徐々に
高度2800ftの千切れ雲あり
25日の 13時(UTC)から 25日の 15時(UTC)まで徐々に
の風 10kt
高度3200ftの雲は散在している
25日の 1600時(UTC)から
東/北東の風 9kt
視程10km以上
1,500メートル以下は雲なし、積乱雲なし

TAF: FWKI 241500Z 2418/2524 19011KT 9999 SCT035 FM241800 16007KT CAVOK TEMPO 2502/2506 6000 BR NSC BECMG 2507/2509 11006KT 9999 FEW025 BECMG 2511/2513 BKN028 BECMG 2513/2515 09010KT SCT032 FM251600 07009KT CAVOK

4,000以上の空港の気象観測と天気予報(METAR報とTAF報)

利用可能な観測所は地図上に黄色い丸と赤い丸で示す。

丸の上にカーソルを重ねると観測所名を参照できる。

次にクリックすると気象観測と天気予報を参照できる。

マップの切り替え:黒色「×」印の緑ボタンをクリックして拡大、「-」印の緑ボタンをクリックして縮小、緑色の三角印をクリックして隣りの地図に切り替え


METAR-TAF: